sensor_id;sensor_type;location;lat;lon;timestamp;pressure;altitude;pressure_sealevel;temperature
73937;BMP180;59249;59.736;30.568;2023-07-28T00:01:39;99863.00;;;16.10
73937;BMP180;59249;59.736;30.568;2023-07-28T00:04:08;99854.00;;;16.10
73937;BMP180;59249;59.736;30.568;2023-07-28T00:06:37;99855.00;;;16.10
73937;BMP180;59249;59.736;30.568;2023-07-28T00:09:06;99850.00;;;16.10
73937;BMP180;59249;59.736;30.568;2023-07-28T00:11:37;99845.00;;;16.00
73937;BMP180;59249;59.736;30.568;2023-07-28T00:14:06;99849.00;;;15.90
73937;BMP180;59249;59.736;30.568;2023-07-28T00:16:34;99840.00;;;15.80
73937;BMP180;59249;59.736;30.568;2023-07-28T00:19:04;99842.00;;;15.90
73937;BMP180;59249;59.736;30.568;2023-07-28T00:21:33;99838.00;;;15.80
73937;BMP180;59249;59.736;30.568;2023-07-28T00:24:02;99834.00;;;15.70
73937;BMP180;59249;59.736;30.568;2023-07-28T00:26:31;99830.00;;;15.70
73937;BMP180;59249;59.736;30.568;2023-07-28T00:29:02;99819.00;;;15.70
73937;BMP180;59249;59.736;30.568;2023-07-28T00:31:35;99818.00;;;15.60
73937;BMP180;59249;59.736;30.568;2023-07-28T00:34:04;99808.00;;;15.60
73937;BMP180;59249;59.736;30.568;2023-07-28T00:36:33;99806.00;;;15.60
73937;BMP180;59249;59.736;30.568;2023-07-28T00:39:03;99800.00;;;15.50
73937;BMP180;59249;59.736;30.568;2023-07-28T00:41:32;99807.00;;;15.60
73937;BMP180;59249;59.736;30.568;2023-07-28T00:44:02;99801.00;;;15.60
73937;BMP180;59249;59.736;30.568;2023-07-28T00:46:32;99812.00;;;15.50
73937;BMP180;59249;59.736;30.568;2023-07-28T00:49:01;99803.00;;;15.60
73937;BMP180;59249;59.736;30.568;2023-07-28T00:51:31;99797.00;;;15.70
73937;BMP180;59249;59.736;30.568;2023-07-28T00:54:01;99801.00;;;15.60
73937;BMP180;59249;59.736;30.568;2023-07-28T00:56:32;99804.00;;;15.60
73937;BMP180;59249;59.736;30.568;2023-07-28T00:59:03;99811.00;;;15.60
73937;BMP180;59249;59.736;30.568;2023-07-28T01:01:32;99812.00;;;15.60
73937;BMP180;59249;59.736;30.568;2023-07-28T01:04:01;99808.00;;;15.70
73937;BMP180;59249;59.736;30.568;2023-07-28T01:06:36;99795.00;;;15.60
73937;BMP180;59249;59.736;30.568;2023-07-28T01:09:12;99805.00;;;15.40
73937;BMP180;59249;59.736;30.568;2023-07-28T01:11:55;99802.00;;;15.20
73937;BMP180;59249;59.736;30.568;2023-07-28T01:14:26;99806.00;;;15.10
73937;BMP180;59249;59.736;30.568;2023-07-28T01:16:55;99802.00;;;15.00
73937;BMP180;59249;59.736;30.568;2023-07-28T01:19:23;99809.00;;;14.90
73937;BMP180;59249;59.736;30.568;2023-07-28T01:22:13;99799.00;;;14.80
73937;BMP180;59249;59.736;30.568;2023-07-28T01:25:02;99820.00;;;14.80
73937;BMP180;59249;59.736;30.568;2023-07-28T01:27:37;99812.00;;;14.80
73937;BMP180;59249;59.736;30.568;2023-07-28T01:30:10;99800.00;;;14.70
73937;BMP180;59249;59.736;30.568;2023-07-28T01:32:39;99793.00;;;14.70
73937;BMP180;59249;59.736;30.568;2023-07-28T01:35:09;99805.00;;;14.60
73937;BMP180;59249;59.736;30.568;2023-07-28T01:37:38;99786.00;;;14.40
73937;BMP180;59249;59.736;30.568;2023-07-28T01:40:08;99788.00;;;14.30
73937;BMP180;59249;59.736;30.568;2023-07-28T01:42:38;99780.00;;;14.20
73937;BMP180;59249;59.736;30.568;2023-07-28T01:45:08;99779.00;;;14.10
73937;BMP180;59249;59.736;30.568;2023-07-28T01:47:38;99778.00;;;14.10
73937;BMP180;59249;59.736;30.568;2023-07-28T01:50:09;99771.00;;;14.10
73937;BMP180;59249;59.736;30.568;2023-07-28T01:52:38;99763.00;;;14.00
73937;BMP180;59249;59.736;30.568;2023-07-28T01:55:08;99762.00;;;14.00
73937;BMP180;59249;59.736;30.568;2023-07-28T01:57:39;99752.00;;;14.00
73937;BMP180;59249;59.736;30.568;2023-07-28T02:00:09;99746.00;;;14.00
73937;BMP180;59249;59.736;30.568;2023-07-28T02:02:42;99744.00;;;14.00
73937;BMP180;59249;59.736;30.568;2023-07-28T02:05:11;99747.00;;;14.00
73937;BMP180;59249;59.736;30.568;2023-07-28T02:07:40;99745.00;;;14.00
73937;BMP180;59249;59.736;30.568;2023-07-28T02:10:09;99749.00;;;14.10
73937;BMP180;59249;59.736;30.568;2023-07-28T02:12:40;99741.00;;;14.10
73937;BMP180;59249;59.736;30.568;2023-07-28T02:15:11;99748.00;;;14.10
73937;BMP180;59249;59.736;30.568;2023-07-28T02:17:41;99749.00;;;14.10
73937;BMP180;59249;59.736;30.568;2023-07-28T02:20:22;99742.00;;;14.00
73937;BMP180;59249;59.736;30.568;2023-07-28T02:22:51;99736.00;;;14.00
73937;BMP180;59249;59.736;30.568;2023-07-28T02:25:21;99731.00;;;14.00
73937;BMP180;59249;59.736;30.568;2023-07-28T02:27:51;99720.00;;;14.00
73937;BMP180;59249;59.736;30.568;2023-07-28T02:30:20;99704.00;;;14.10
73937;BMP180;59249;59.736;30.568;2023-07-28T02:32:49;99710.00;;;14.00
73937;BMP180;59249;59.736;30.568;2023-07-28T02:35:18;99703.00;;;14.00
73937;BMP180;59249;59.736;30.568;2023-07-28T02:37:47;99702.00;;;14.00
73937;BMP180;59249;59.736;30.568;2023-07-28T02:40:16;99703.00;;;14.00
73937;BMP180;59249;59.736;30.568;2023-07-28T02:42:46;99706.00;;;14.10
73937;BMP180;59249;59.736;30.568;2023-07-28T02:45:16;99711.00;;;14.10
73937;BMP180;59249;59.736;30.568;2023-07-28T02:47:45;99718.00;;;14.10
73937;BMP180;59249;59.736;30.568;2023-07-28T02:50:15;99718.00;;;14.20
73937;BMP180;59249;59.736;30.568;2023-07-28T02:52:44;99718.00;;;14.20
73937;BMP180;59249;59.736;30.568;2023-07-28T02:55:13;99719.00;;;14.10
73937;BMP180;59249;59.736;30.568;2023-07-28T02:57:42;99712.00;;;14.20
73937;BMP180;59249;59.736;30.568;2023-07-28T03:00:12;99706.00;;;14.20
73937;BMP180;59249;59.736;30.568;2023-07-28T03:02:43;99717.00;;;14.20
73937;BMP180;59249;59.736;30.568;2023-07-28T03:05:12;99715.00;;;14.20
73937;BMP180;59249;59.736;30.568;2023-07-28T03:07:51;99721.00;;;14.30
73937;BMP180;59249;59.736;30.568;2023-07-28T03:10:20;99714.00;;;14.30
73937;BMP180;59249;59.736;30.568;2023-07-28T03:12:49;99709.00;;;14.30
73937;BMP180;59249;59.736;30.568;2023-07-28T03:15:18;99705.00;;;14.30
73937;BMP180;59249;59.736;30.568;2023-07-28T03:17:48;99706.00;;;14.20
73937;BMP180;59249;59.736;30.568;2023-07-28T03:20:19;99705.00;;;14.20
73937;BMP180;59249;59.736;30.568;2023-07-28T03:22:50;99699.00;;;14.10
73937;BMP180;59249;59.736;30.568;2023-07-28T03:25:18;99693.00;;;13.90
73937;BMP180;59249;59.736;30.568;2023-07-28T03:27:47;99684.00;;;13.80
73937;BMP180;59249;59.736;30.568;2023-07-28T03:30:16;99693.00;;;13.80
73937;BMP180;59249;59.736;30.568;2023-07-28T03:32:45;99686.00;;;13.80
73937;BMP180;59249;59.736;30.568;2023-07-28T03:35:15;99672.00;;;13.80
73937;BMP180;59249;59.736;30.568;2023-07-28T03:37:54;99672.00;;;13.80
73937;BMP180;59249;59.736;30.568;2023-07-28T03:40:23;99660.00;;;13.90
73937;BMP180;59249;59.736;30.568;2023-07-28T03:42:54;99659.00;;;13.80
73937;BMP180;59249;59.736;30.568;2023-07-28T03:45:23;99647.00;;;13.90
73937;BMP180;59249;59.736;30.568;2023-07-28T03:47:52;99648.00;;;13.80
73937;BMP180;59249;59.736;30.568;2023-07-28T03:50:23;99650.00;;;13.90
73937;BMP180;59249;59.736;30.568;2023-07-28T03:52:53;99644.00;;;14.00
73937;BMP180;59249;59.736;30.568;2023-07-28T03:55:22;99646.00;;;14.00
73937;BMP180;59249;59.736;30.568;2023-07-28T03:57:51;99656.00;;;14.10
73937;BMP180;59249;59.736;30.568;2023-07-28T04:00:20;99644.00;;;14.10
73937;BMP180;59249;59.736;30.568;2023-07-28T04:02:49;99645.00;;;14.20
73937;BMP180;59249;59.736;30.568;2023-07-28T04:05:18;99641.00;;;14.20
73937;BMP180;59249;59.736;30.568;2023-07-28T04:07:48;99636.00;;;14.30
73937;BMP180;59249;59.736;30.568;2023-07-28T04:10:17;99626.00;;;14.30
73937;BMP180;59249;59.736;30.568;2023-07-28T04:12:46;99633.00;;;14.30
73937;BMP180;59249;59.736;30.568;2023-07-28T04:15:15;99628.00;;;14.30
73937;BMP180;59249;59.736;30.568;2023-07-28T04:17:44;99632.00;;;14.30
73937;BMP180;59249;59.736;30.568;2023-07-28T04:20:13;99635.00;;;14.30
73937;BMP180;59249;59.736;30.568;2023-07-28T04:22:42;99636.00;;;14.30
73937;BMP180;59249;59.736;30.568;2023-07-28T04:25:13;99642.00;;;14.40
73937;BMP180;59249;59.736;30.568;2023-07-28T04:27:46;99645.00;;;14.40
73937;BMP180;59249;59.736;30.568;2023-07-28T04:30:15;99638.00;;;14.40
73937;BMP180;59249;59.736;30.568;2023-07-28T04:32:44;99640.00;;;14.40
73937;BMP180;59249;59.736;30.568;2023-07-28T04:35:17;99643.00;;;14.40
73937;BMP180;59249;59.736;30.568;2023-07-28T04:38:09;99634.00;;;14.30
73937;BMP180;59249;59.736;30.568;2023-07-28T04:40:56;99631.00;;;14.30
73937;BMP180;59249;59.736;30.568;2023-07-28T04:43:42;99637.00;;;14.30
73937;BMP180;59249;59.736;30.568;2023-07-28T04:46:11;99637.00;;;14.30
73937;BMP180;59249;59.736;30.568;2023-07-28T04:48:42;99634.00;;;14.30
73937;BMP180;59249;59.736;30.568;2023-07-28T04:51:30;99622.00;;;14.30
73937;BMP180;59249;59.736;30.568;2023-07-28T04:54:21;99619.00;;;14.20
73937;BMP180;59249;59.736;30.568;2023-07-28T04:56:51;99613.00;;;14.20
73937;BMP180;59249;59.736;30.568;2023-07-28T04:59:27;99613.00;;;14.30
73937;BMP180;59249;59.736;30.568;2023-07-28T05:02:01;99604.00;;;14.20
73937;BMP180;59249;59.736;30.568;2023-07-28T05:04:34;99596.00;;;14.30
73937;BMP180;59249;59.736;30.568;2023-07-28T05:07:05;99601.00;;;14.20
73937;BMP180;59249;59.736;30.568;2023-07-28T05:09:34;99596.00;;;14.30
73937;BMP180;59249;59.736;30.568;2023-07-28T05:12:05;99604.00;;;14.30
73937;BMP180;59249;59.736;30.568;2023-07-28T05:14:41;99595.00;;;14.30
73937;BMP180;59249;59.736;30.568;2023-07-28T05:17:12;99593.00;;;14.40
73937;BMP180;59249;59.736;30.568;2023-07-28T05:20:06;99588.00;;;14.30
73937;BMP180;59249;59.736;30.568;2023-07-28T05:22:42;99582.00;;;14.40
73937;BMP180;59249;59.736;30.568;2023-07-28T05:25:11;99587.00;;;14.40
73937;BMP180;59249;59.736;30.568;2023-07-28T05:27:44;99578.00;;;14.40
73937;BMP180;59249;59.736;30.568;2023-07-28T05:30:14;99589.00;;;14.40
73937;BMP180;59249;59.736;30.568;2023-07-28T05:32:43;99581.00;;;14.40
73937;BMP180;59249;59.736;30.568;2023-07-28T05:35:39;99575.00;;;14.50
73937;BMP180;59249;59.736;30.568;2023-07-28T05:38:08;99591.00;;;14.50
73937;BMP180;59249;59.736;30.568;2023-07-28T05:40:37;99585.00;;;14.50
73937;BMP180;59249;59.736;30.568;2023-07-28T05:43:08;99582.00;;;14.60
73937;BMP180;59249;59.736;30.568;2023-07-28T05:45:37;99580.00;;;14.70
73937;BMP180;59249;59.736;30.568;2023-07-28T05:48:06;99584.00;;;14.80
73937;BMP180;59249;59.736;30.568;2023-07-28T05:50:38;99571.00;;;14.80
73937;BMP180;59249;59.736;30.568;2023-07-28T05:53:07;99568.00;;;14.80
73937;BMP180;59249;59.736;30.568;2023-07-28T05:55:36;99547.00;;;14.80
73937;BMP180;59249;59.736;30.568;2023-07-28T05:58:05;99545.00;;;14.70
73937;BMP180;59249;59.736;30.568;2023-07-28T06:00:40;99543.00;;;14.80
73937;BMP180;59249;59.736;30.568;2023-07-28T06:03:17;99525.00;;;14.80
73937;BMP180;59249;59.736;30.568;2023-07-28T06:05:58;99541.00;;;14.80
73937;BMP180;59249;59.736;30.568;2023-07-28T06:08:27;99543.00;;;14.80
73937;BMP180;59249;59.736;30.568;2023-07-28T06:10:56;99536.00;;;14.80
73937;BMP180;59249;59.736;30.568;2023-07-28T06:13:24;99538.00;;;14.90
73937;BMP180;59249;59.736;30.568;2023-07-28T06:15:55;99530.00;;;14.90
73937;BMP180;59249;59.736;30.568;2023-07-28T06:18:30;99529.00;;;14.90
73937;BMP180;59249;59.736;30.568;2023-07-28T06:21:10;99525.00;;;15.00
73937;BMP180;59249;59.736;30.568;2023-07-28T06:23:39;99529.00;;;15.10
73937;BMP180;59249;59.736;30.568;2023-07-28T06:26:08;99520.00;;;15.10
73937;BMP180;59249;59.736;30.568;2023-07-28T06:28:42;99518.00;;;15.30
73937;BMP180;59249;59.736;30.568;2023-07-28T06:31:17;99516.00;;;15.30
73937;BMP180;59249;59.736;30.568;2023-07-28T06:33:47;99527.00;;;15.30
73937;BMP180;59249;59.736;30.568;2023-07-28T06:36:16;99510.00;;;15.30
73937;BMP180;59249;59.736;30.568;2023-07-28T06:38:49;99519.00;;;15.40
73937;BMP180;59249;59.736;30.568;2023-07-28T06:41:19;99508.00;;;15.40
73937;BMP180;59249;59.736;30.568;2023-07-28T06:43:54;99511.00;;;15.50
73937;BMP180;59249;59.736;30.568;2023-07-28T06:46:27;99507.00;;;15.50
73937;BMP180;59249;59.736;30.568;2023-07-28T06:48:57;99507.00;;;15.60
73937;BMP180;59249;59.736;30.568;2023-07-28T06:51:26;99498.00;;;15.70
73937;BMP180;59249;59.736;30.568;2023-07-28T06:53:55;99486.00;;;15.60
73937;BMP180;59249;59.736;30.568;2023-07-28T06:56:24;99458.00;;;15.60
73937;BMP180;59249;59.736;30.568;2023-07-28T06:58:53;99488.00;;;15.70
73937;BMP180;59249;59.736;30.568;2023-07-28T07:01:44;99481.00;;;15.70
73937;BMP180;59249;59.736;30.568;2023-07-28T07:04:14;99491.00;;;15.60
73937;BMP180;59249;59.736;30.568;2023-07-28T07:06:44;99483.00;;;15.70
73937;BMP180;59249;59.736;30.568;2023-07-28T07:09:14;99494.00;;;15.60
73937;BMP180;59249;59.736;30.568;2023-07-28T07:11:43;99490.00;;;15.60
73937;BMP180;59249;59.736;30.568;2023-07-28T07:14:16;99494.00;;;15.60
73937;BMP180;59249;59.736;30.568;2023-07-28T07:16:56;99476.00;;;15.60
73937;BMP180;59249;59.736;30.568;2023-07-28T07:19:27;99487.00;;;15.60
73937;BMP180;59249;59.736;30.568;2023-07-28T07:21:57;99485.00;;;15.40
73937;BMP180;59249;59.736;30.568;2023-07-28T07:24:31;99496.00;;;15.40
73937;BMP180;59249;59.736;30.568;2023-07-28T07:27:03;99498.00;;;15.50
73937;BMP180;59249;59.736;30.568;2023-07-28T07:29:34;99466.00;;;15.40
73937;BMP180;59249;59.736;30.568;2023-07-28T07:32:05;99492.00;;;15.30
73937;BMP180;59249;59.736;30.568;2023-07-28T07:34:38;99501.00;;;15.20
73937;BMP180;59249;59.736;30.568;2023-07-28T07:37:08;99490.00;;;15.20
73937;BMP180;59249;59.736;30.568;2023-07-28T07:39:37;99477.00;;;15.20
73937;BMP180;59249;59.736;30.568;2023-07-28T07:42:09;99498.00;;;15.20
73937;BMP180;59249;59.736;30.568;2023-07-28T07:44:41;99498.00;;;15.10
73937;BMP180;59249;59.736;30.568;2023-07-28T07:47:15;99491.00;;;15.30
73937;BMP180;59249;59.736;30.568;2023-07-28T07:49:48;99491.00;;;15.20
73937;BMP180;59249;59.736;30.568;2023-07-28T07:52:18;99490.00;;;15.20
73937;BMP180;59249;59.736;30.568;2023-07-28T07:54:50;99499.00;;;15.30
73937;BMP180;59249;59.736;30.568;2023-07-28T07:57:19;99507.00;;;15.30
73937;BMP180;59249;59.736;30.568;2023-07-28T07:59:48;99503.00;;;15.30
73937;BMP180;59249;59.736;30.568;2023-07-28T08:02:18;99484.00;;;15.30
73937;BMP180;59249;59.736;30.568;2023-07-28T08:04:47;99496.00;;;15.30
73937;BMP180;59249;59.736;30.568;2023-07-28T08:07:17;99482.00;;;15.40
73937;BMP180;59249;59.736;30.568;2023-07-28T08:09:46;99486.00;;;15.30
73937;BMP180;59249;59.736;30.568;2023-07-28T08:12:16;99496.00;;;15.30
73937;BMP180;59249;59.736;30.568;2023-07-28T08:14:45;99477.00;;;15.30
73937;BMP180;59249;59.736;30.568;2023-07-28T08:17:18;99489.00;;;15.40
73937;BMP180;59249;59.736;30.568;2023-07-28T08:19:47;99491.00;;;15.40
73937;BMP180;59249;59.736;30.568;2023-07-28T08:22:16;99476.00;;;15.30
73937;BMP180;59249;59.736;30.568;2023-07-28T08:24:45;99470.00;;;15.40
73937;BMP180;59249;59.736;30.568;2023-07-28T08:27:14;99488.00;;;15.30
73937;BMP180;59249;59.736;30.568;2023-07-28T08:29:43;99487.00;;;15.30
73937;BMP180;59249;59.736;30.568;2023-07-28T08:32:14;99489.00;;;15.30
73937;BMP180;59249;59.736;30.568;2023-07-28T08:34:44;99488.00;;;15.30
73937;BMP180;59249;59.736;30.568;2023-07-28T08:37:13;99497.00;;;15.20
73937;BMP180;59249;59.736;30.568;2023-07-28T08:39:45;99501.00;;;15.20
73937;BMP180;59249;59.736;30.568;2023-07-28T08:42:13;99495.00;;;15.20
73937;BMP180;59249;59.736;30.568;2023-07-28T08:44:42;99488.00;;;15.10
73937;BMP180;59249;59.736;30.568;2023-07-28T08:47:14;99523.00;;;15.00
73937;BMP180;59249;59.736;30.568;2023-07-28T08:49:44;99505.00;;;15.00
73937;BMP180;59249;59.736;30.568;2023-07-28T08:52:16;99514.00;;;15.00
73937;BMP180;59249;59.736;30.568;2023-07-28T08:54:46;99493.00;;;14.90
73937;BMP180;59249;59.736;30.568;2023-07-28T08:57:14;99496.00;;;15.00
73937;BMP180;59249;59.736;30.568;2023-07-28T08:59:43;99501.00;;;15.00
73937;BMP180;59249;59.736;30.568;2023-07-28T09:02:15;99496.00;;;15.00
73937;BMP180;59249;59.736;30.568;2023-07-28T09:04:47;99509.00;;;15.00
73937;BMP180;59249;59.736;30.568;2023-07-28T09:07:17;99499.00;;;15.00
73937;BMP180;59249;59.736;30.568;2023-07-28T09:09:46;99499.00;;;14.90
73937;BMP180;59249;59.736;30.568;2023-07-28T09:12:18;99509.00;;;14.90
73937;BMP180;59249;59.736;30.568;2023-07-28T09:14:56;99511.00;;;14.90
73937;BMP180;59249;59.736;30.568;2023-07-28T09:17:25;99505.00;;;14.90
73937;BMP180;59249;59.736;30.568;2023-07-28T09:19:56;99517.00;;;15.00
73937;BMP180;59249;59.736;30.568;2023-07-28T09:22:25;99515.00;;;15.10
73937;BMP180;59249;59.736;30.568;2023-07-28T09:24:54;99519.00;;;15.20
73937;BMP180;59249;59.736;30.568;2023-07-28T09:27:23;99501.00;;;15.40
73937;BMP180;59249;59.736;30.568;2023-07-28T09:29:54;99511.00;;;15.30
73937;BMP180;59249;59.736;30.568;2023-07-28T09:32:28;99528.00;;;15.40
73937;BMP180;59249;59.736;30.568;2023-07-28T09:35:10;99522.00;;;15.40
73937;BMP180;59249;59.736;30.568;2023-07-28T09:37:41;99522.00;;;15.50
73937;BMP180;59249;59.736;30.568;2023-07-28T09:40:13;99525.00;;;15.60
73937;BMP180;59249;59.736;30.568;2023-07-28T09:42:45;99525.00;;;15.70
73937;BMP180;59249;59.736;30.568;2023-07-28T09:45:22;99540.00;;;15.70
73937;BMP180;59249;59.736;30.568;2023-07-28T09:48:06;99521.00;;;15.70
73937;BMP180;59249;59.736;30.568;2023-07-28T09:50:41;99507.00;;;15.70
73937;BMP180;59249;59.736;30.568;2023-07-28T09:53:14;99519.00;;;15.80
73937;BMP180;59249;59.736;30.568;2023-07-28T09:55:45;99503.00;;;15.90
73937;BMP180;59249;59.736;30.568;2023-07-28T09:58:17;99513.00;;;16.00
73937;BMP180;59249;59.736;30.568;2023-07-28T10:00:52;99514.00;;;16.20
73937;BMP180;59249;59.736;30.568;2023-07-28T10:03:22;99510.00;;;16.20
73937;BMP180;59249;59.736;30.568;2023-07-28T10:05:53;99511.00;;;16.40
73937;BMP180;59249;59.736;30.568;2023-07-28T10:08:22;99506.00;;;16.50
73937;BMP180;59249;59.736;30.568;2023-07-28T10:10:53;99522.00;;;16.50
73937;BMP180;59249;59.736;30.568;2023-07-28T10:13:23;99527.00;;;16.40
73937;BMP180;59249;59.736;30.568;2023-07-28T10:15:54;99541.00;;;16.50
73937;BMP180;59249;59.736;30.568;2023-07-28T10:18:25;99528.00;;;16.50
73937;BMP180;59249;59.736;30.568;2023-07-28T10:21:05;99522.00;;;16.50
73937;BMP180;59249;59.736;30.568;2023-07-28T10:23:35;99525.00;;;16.40
73937;BMP180;59249;59.736;30.568;2023-07-28T10:26:04;99529.00;;;16.40
73937;BMP180;59249;59.736;30.568;2023-07-28T10:28:34;99532.00;;;16.40
73937;BMP180;59249;59.736;30.568;2023-07-28T10:31:06;99541.00;;;16.30
73937;BMP180;59249;59.736;30.568;2023-07-28T10:33:39;99537.00;;;16.30
73937;BMP180;59249;59.736;30.568;2023-07-28T10:36:17;99540.00;;;16.20
73937;BMP180;59249;59.736;30.568;2023-07-28T10:39:11;99543.00;;;16.30
73937;BMP180;59249;59.736;30.568;2023-07-28T10:42:01;99541.00;;;16.00
73937;BMP180;59249;59.736;30.568;2023-07-28T10:44:33;99541.00;;;16.20
73937;BMP180;59249;59.736;30.568;2023-07-28T10:47:02;99542.00;;;16.20
73937;BMP180;59249;59.736;30.568;2023-07-28T10:49:36;99539.00;;;16.20
73937;BMP180;59249;59.736;30.568;2023-07-28T10:52:06;99530.00;;;16.30
73937;BMP180;59249;59.736;30.568;2023-07-28T10:54:35;99529.00;;;16.40
73937;BMP180;59249;59.736;30.568;2023-07-28T10:57:05;99528.00;;;16.50
73937;BMP180;59249;59.736;30.568;2023-07-28T10:59:35;99527.00;;;16.60
73937;BMP180;59249;59.736;30.568;2023-07-28T11:02:04;99523.00;;;16.60
73937;BMP180;59249;59.736;30.568;2023-07-28T11:04:34;99527.00;;;16.60
73937;BMP180;59249;59.736;30.568;2023-07-28T11:07:06;99541.00;;;16.60
73937;BMP180;59249;59.736;30.568;2023-07-28T11:09:35;99540.00;;;16.80
73937;BMP180;59249;59.736;30.568;2023-07-28T11:12:05;99536.00;;;16.80
73937;BMP180;59249;59.736;30.568;2023-07-28T11:14:39;99535.00;;;16.70
73937;BMP180;59249;59.736;30.568;2023-07-28T11:17:07;99534.00;;;16.90
73937;BMP180;59249;59.736;30.568;2023-07-28T11:19:38;99532.00;;;17.00
73937;BMP180;59249;59.736;30.568;2023-07-28T11:22:08;99526.00;;;17.10
73937;BMP180;59249;59.736;30.568;2023-07-28T11:24:37;99535.00;;;17.20
73937;BMP180;59249;59.736;30.568;2023-07-28T11:27:06;99534.00;;;17.50
73937;BMP180;59249;59.736;30.568;2023-07-28T11:29:35;99532.00;;;17.70
73937;BMP180;59249;59.736;30.568;2023-07-28T11:32:05;99531.00;;;17.90
73937;BMP180;59249;59.736;30.568;2023-07-28T11:34:36;99523.00;;;18.00
73937;BMP180;59249;59.736;30.568;2023-07-28T11:37:10;99519.00;;;18.00
73937;BMP180;59249;59.736;30.568;2023-07-28T11:39:40;99534.00;;;18.00
73937;BMP180;59249;59.736;30.568;2023-07-28T11:42:09;99549.00;;;17.90
73937;BMP180;59249;59.736;30.568;2023-07-28T11:44:39;99566.00;;;18.00
73937;BMP180;59249;59.736;30.568;2023-07-28T11:47:16;99563.00;;;18.10
73937;BMP180;59249;59.736;30.568;2023-07-28T11:49:46;99543.00;;;18.10
73937;BMP180;59249;59.736;30.568;2023-07-28T11:52:17;99560.00;;;18.10
73937;BMP180;59249;59.736;30.568;2023-07-28T11:54:51;99574.00;;;18.20
73937;BMP180;59249;59.736;30.568;2023-07-28T11:57:21;99564.00;;;18.20
73937;BMP180;59249;59.736;30.568;2023-07-28T11:59:50;99562.00;;;18.10
73937;BMP180;59249;59.736;30.568;2023-07-28T12:02:24;99573.00;;;18.10
73937;BMP180;59249;59.736;30.568;2023-07-28T12:04:55;99557.00;;;18.20
73937;BMP180;59249;59.736;30.568;2023-07-28T12:07:32;99556.00;;;18.10
73937;BMP180;59249;59.736;30.568;2023-07-28T12:10:03;99564.00;;;18.00
73937;BMP180;59249;59.736;30.568;2023-07-28T12:12:39;99554.00;;;18.00
73937;BMP180;59249;59.736;30.568;2023-07-28T12:15:21;99552.00;;;18.00
73937;BMP180;59249;59.736;30.568;2023-07-28T12:18:03;99573.00;;;18.00
73937;BMP180;59249;59.736;30.568;2023-07-28T12:20:40;99563.00;;;18.10
73937;BMP180;59249;59.736;30.568;2023-07-28T12:23:16;99598.00;;;18.00
73937;BMP180;59249;59.736;30.568;2023-07-28T12:25:49;99579.00;;;18.10
73937;BMP180;59249;59.736;30.568;2023-07-28T12:28:20;99566.00;;;18.00
73937;BMP180;59249;59.736;30.568;2023-07-28T12:30:49;99555.00;;;18.10
73937;BMP180;59249;59.736;30.568;2023-07-28T12:33:19;99590.00;;;18.20
73937;BMP180;59249;59.736;30.568;2023-07-28T12:35:50;99589.00;;;18.20
73937;BMP180;59249;59.736;30.568;2023-07-28T12:38:21;99609.00;;;18.30
73937;BMP180;59249;59.736;30.568;2023-07-28T12:40:55;99586.00;;;18.30
73937;BMP180;59249;59.736;30.568;2023-07-28T12:43:27;99606.00;;;18.20
73937;BMP180;59249;59.736;30.568;2023-07-28T12:45:59;99615.00;;;18.10
73937;BMP180;59249;59.736;30.568;2023-07-28T12:48:30;99610.00;;;18.20
73937;BMP180;59249;59.736;30.568;2023-07-28T12:50:59;99618.00;;;18.20
73937;BMP180;59249;59.736;30.568;2023-07-28T12:53:32;99628.00;;;18.30
73937;BMP180;59249;59.736;30.568;2023-07-28T12:56:00;99602.00;;;18.20
73937;BMP180;59249;59.736;30.568;2023-07-28T12:58:29;99614.00;;;18.30
73937;BMP180;59249;59.736;30.568;2023-07-28T13:01:01;99599.00;;;18.40
73937;BMP180;59249;59.736;30.568;2023-07-28T13:03:32;99606.00;;;18.50
73937;BMP180;59249;59.736;30.568;2023-07-28T13:06:00;99608.00;;;18.70
73937;BMP180;59249;59.736;30.568;2023-07-28T13:08:55;99612.00;;;18.90
73937;BMP180;59249;59.736;30.568;2023-07-28T13:11:27;99585.00;;;19.10
73937;BMP180;59249;59.736;30.568;2023-07-28T13:14:16;99579.00;;;19.40
73937;BMP180;59249;59.736;30.568;2023-07-28T13:16:45;99624.00;;;19.40
73937;BMP180;59249;59.736;30.568;2023-07-28T13:19:13;99624.00;;;19.50
73937;BMP180;59249;59.736;30.568;2023-07-28T13:21:42;99621.00;;;19.60
73937;BMP180;59249;59.736;30.568;2023-07-28T13:24:12;99612.00;;;19.80
73937;BMP180;59249;59.736;30.568;2023-07-28T13:26:41;99602.00;;;19.90
73937;BMP180;59249;59.736;30.568;2023-07-28T13:29:10;99601.00;;;19.90
73937;BMP180;59249;59.736;30.568;2023-07-28T13:31:39;99606.00;;;19.80
73937;BMP180;59249;59.736;30.568;2023-07-28T13:34:07;99629.00;;;19.90
73937;BMP180;59249;59.736;30.568;2023-07-28T13:36:36;99624.00;;;19.80
73937;BMP180;59249;59.736;30.568;2023-07-28T13:39:05;99602.00;;;20.00
73937;BMP180;59249;59.736;30.568;2023-07-28T13:41:36;99606.00;;;20.10
73937;BMP180;59249;59.736;30.568;2023-07-28T13:44:06;99613.00;;;20.20
73937;BMP180;59249;59.736;30.568;2023-07-28T13:46:41;99606.00;;;20.20
73937;BMP180;59249;59.736;30.568;2023-07-28T13:49:10;99619.00;;;20.20
73937;BMP180;59249;59.736;30.568;2023-07-28T13:51:46;99617.00;;;20.10
73937;BMP180;59249;59.736;30.568;2023-07-28T13:54:20;99633.00;;;19.90
73937;BMP180;59249;59.736;30.568;2023-07-28T13:56:52;99610.00;;;19.80
73937;BMP180;59249;59.736;30.568;2023-07-28T13:59:24;99608.00;;;19.80
73937;BMP180;59249;59.736;30.568;2023-07-28T14:01:52;99643.00;;;19.80
73937;BMP180;59249;59.736;30.568;2023-07-28T14:04:22;99605.00;;;19.70
73937;BMP180;59249;59.736;30.568;2023-07-28T14:06:51;99633.00;;;19.80
73937;BMP180;59249;59.736;30.568;2023-07-28T14:09:20;99635.00;;;19.70
73937;BMP180;59249;59.736;30.568;2023-07-28T14:11:49;99640.00;;;19.60
73937;BMP180;59249;59.736;30.568;2023-07-28T14:14:19;99635.00;;;19.60
73937;BMP180;59249;59.736;30.568;2023-07-28T14:16:50;99636.00;;;19.60
73937;BMP180;59249;59.736;30.568;2023-07-28T14:19:19;99642.00;;;19.80
73937;BMP180;59249;59.736;30.568;2023-07-28T14:21:48;99630.00;;;19.90